Uzice, Serbia
Current Conditions -  °F | °C
As of 8:00 PM on Monday 24 Nov 2014 (Local Time) from LYUZ Reporting Station
Moderate Fog Moderate Fog  
Wind Chill: -3°   Ceiling: 100
Heat Index:   Visibility: 0.06mi
Dew Point:   Wind: 5mph
Humidity: 100%   Direction: 100°E
Pressure: 30.24"   Gusts: NA
Location:  43.85°N, 19.85°E
Report Text: LYUZ 241800Z 10004KT 060V130 0100 FG VV001 00/00 Q1024
Loading
Personal Weather Stations






























Interactive Weather Map New forecast layout! Learn more

10-Day Weather Forecast

Advertisements
Track Severe Weather on mobile